Huntsville, TX (77320)

10:01 PM CST on February 28, 2015 (GMT -0600)
RAWS HUNTSVILLE TX US | Change Station
CLOSE
Current Station
Personal Weather Station
Location: Huntsville, TX
Elevation: 354 ft
Nearby Weather Stations

Elev 354 ft 30.74 °N, 95.59 °W | Updated 55 minutes ago

Overcast
Overcast
47 °F
Feels Like 45 °F
N
4
Wind Variable Wind from NNE
Gusts 8.0 mph

Today
High -- | Low -- °F
--% Chance of Precip.
Yesterday
High -- | Low -- °F
Precip. -- in
6:50 AM 6:20 PM
Waxing Gibbous, 82% visible
Pressure 30.26 in
Visibility 9.0 miles
Clouds Overcast 2200 ft
Windchill 45 °F
Dew Point 43 °F
Humidity 85%
Rainfall 0.00 in
Snow Depth Not available.
UV 0 out of 12
Pollen 8.60 out of 12
Air Quality Not available.
Flu Activity Not available.
METAR KUTS 010353Z AUTO 00000KT 9SM OVC022 08/07 A3025 RMK AO2 RAE24 SLP245 P0000 T00830067

More Conditions Fewer Conditions

Pressure 30.26 in
Visibility 9.0 miles
Clouds Overcast 2200 ft
Windchill 45 °F
Dew Point 43 °F
Humidity 85%
Rainfall 0.00 in
Snow Depth Not available.
UV 0 out of 12
Pollen 8.60 out of 12
Air Quality Not available.
Flu Activity Not available.
METAR KUTS 010353Z AUTO 00000KT 9SM OVC022 08/07 A3025 RMK AO2 RAE24 SLP245 P0000 T00830067

More Conditions Fewer Conditions

10-Day Weather Forecast

Almanac

Astronomy

Feb. 28, 2015 Rise Set
Actual Time
Civil Twilight
Nautical Twilight
Astronomical Twilight
Moon
Length of Visible Light
Length of Day
Tomorrow will be .
, % of the Moon is Illuminated

Today's Extremes

State Highs State Lows

Community

WunderPhotos

Upload Photos

1,801,308 photos uploaded!

WunderBlogs® & News

Nearby

Air Quality

  Air Quality AQ Index Pollutant
Not available.

Snow Depth

Station Depth Elevation

Earthquake Activity

City Distance Mag. Time & Date
Minimum magnitude displayed is 2.5.

Coastal Water Temperatures

Place Temperature

Nearby Weather Stations